createdAt,value
2024-03-05T00:00:12.295Z,5.41
2024-03-05T00:02:44.479Z,5.55
2024-03-05T00:05:15.227Z,5.50
2024-03-05T00:07:44.466Z,5.34
2024-03-05T00:10:14.115Z,5.42
2024-03-05T00:12:42.990Z,5.46
2024-03-05T00:15:13.261Z,5.43
2024-03-05T00:17:41.548Z,5.38
2024-03-05T00:20:19.217Z,5.42
2024-03-05T00:22:48.543Z,5.38
2024-03-05T00:25:17.361Z,5.22
2024-03-05T00:27:46.710Z,5.21
2024-03-05T00:30:17.254Z,5.36
2024-03-05T00:32:46.280Z,5.41
2024-03-05T00:35:15.203Z,5.12
2024-03-05T00:37:43.610Z,5.01
2024-03-05T00:40:12.708Z,5.32
2024-03-05T00:42:41.175Z,5.28
2024-03-05T00:45:11.862Z,5.21
2024-03-05T00:47:41.481Z,5.23
2024-03-05T00:50:14.220Z,5.19
2024-03-05T00:52:42.580Z,5.12
2024-03-05T00:55:10.968Z,5.04
2024-03-05T00:57:39.833Z,4.99
2024-03-05T01:00:09.578Z,4.49
2024-03-05T01:02:37.895Z,4.57
2024-03-05T01:05:10.978Z,4.39
2024-03-05T01:07:39.598Z,4.31
2024-03-05T01:10:09.245Z,4.36
2024-03-05T01:12:38.017Z,4.32
2024-03-05T01:15:07.173Z,4.33
2024-03-05T01:17:35.461Z,4.31
2024-03-05T01:20:04.672Z,4.15
2024-03-05T01:22:34.575Z,4.15
2024-03-05T01:25:04.081Z,4.09
2024-03-05T01:27:32.374Z,4.02
2024-03-05T01:30:01.214Z,3.95
2024-03-05T01:32:30.454Z,3.97
2024-03-05T01:34:58.705Z,3.85
2024-03-05T01:37:27.492Z,3.74
2024-03-05T01:39:57.217Z,3.74
2024-03-05T01:42:25.446Z,3.67
2024-03-05T01:44:54.040Z,3.66
2024-03-05T01:47:22.441Z,3.60
2024-03-05T01:49:50.988Z,3.51
2024-03-05T01:52:19.730Z,3.44
2024-03-05T01:54:48.606Z,3.47
2024-03-05T01:57:20.481Z,3.30
2024-03-05T01:59:48.806Z,3.29
2024-03-05T02:02:17.485Z,3.28
2024-03-05T02:04:47.154Z,3.16
2024-03-05T02:07:15.632Z,3.16
2024-03-05T02:09:43.913Z,3.08
2024-03-05T02:12:12.165Z,3.18
2024-03-05T02:14:41.885Z,3.03
2024-03-05T02:17:11.351Z,2.90
2024-03-05T02:19:47.089Z,2.93
2024-03-05T02:22:16.850Z,2.99
2024-03-05T02:24:45.529Z,2.91
2024-03-05T02:27:20.302Z,2.91
2024-03-05T02:29:53.942Z,2.81
2024-03-05T02:32:24.398Z,2.84
2024-03-05T02:34:55.367Z,2.83
2024-03-05T02:37:25.122Z,2.88
2024-03-05T02:39:53.795Z,2.79
2024-03-05T02:42:22.074Z,2.90
2024-03-05T02:44:50.279Z,2.86
2024-03-05T02:47:18.546Z,2.87
2024-03-05T02:49:46.915Z,2.78
2024-03-05T02:52:15.978Z,2.76
2024-03-05T02:54:46.669Z,3.16
2024-03-05T02:57:15.060Z,2.83
2024-03-05T02:59:43.462Z,2.78
2024-03-05T03:02:11.661Z,2.79
2024-03-05T03:04:40.346Z,2.75
2024-03-05T03:07:08.624Z,2.72
2024-03-05T03:09:36.817Z,2.69
2024-03-05T03:12:07.239Z,2.65
2024-03-05T03:14:35.521Z,2.63
2024-03-05T03:17:03.784Z,2.57
2024-03-05T03:19:33.084Z,2.54
2024-03-05T03:22:01.789Z,2.54
2024-03-05T03:24:30.001Z,2.50
2024-03-05T03:26:58.200Z,2.55
2024-03-05T03:29:28.018Z,2.45
2024-03-05T03:31:57.377Z,2.48
2024-03-05T03:34:25.792Z,2.46
2024-03-05T03:36:55.218Z,2.69
2024-03-05T03:39:25.892Z,2.43
2024-03-05T03:41:56.050Z,2.46
2024-03-05T03:44:24.600Z,2.37
2024-03-05T03:46:54.582Z,2.33
2024-03-05T03:49:25.898Z,2.23
2024-03-05T03:51:55.295Z,2.19
2024-03-05T03:54:24.043Z,2.11
2024-03-05T03:56:52.604Z,2.44
2024-03-05T03:59:21.354Z,2.41
2024-03-05T04:01:50.935Z,2.42
2024-03-05T04:04:20.771Z,2.36
2024-03-05T04:06:49.842Z,1.93
2024-03-05T04:09:18.160Z,1.70
2024-03-05T04:11:47.445Z,1.74
2024-03-05T04:14:16.279Z,2.09
2024-03-05T04:16:44.691Z,2.17
2024-03-05T04:19:13.154Z,2.19
2024-03-05T04:21:43.331Z,1.98
2024-03-05T04:24:14.515Z,2.05
2024-03-05T04:26:43.450Z,2.03
2024-03-05T04:29:17.810Z,2.07
2024-03-05T04:31:56.223Z,1.72
2024-03-05T04:34:24.680Z,1.76
2024-03-05T04:36:56.375Z,1.60
2024-03-05T04:39:26.340Z,1.34
2024-03-05T04:41:54.572Z,1.41
2024-03-05T04:44:22.844Z,1.57
2024-03-05T04:46:51.098Z,1.53
2024-03-05T04:49:19.404Z,1.44
2024-03-05T04:51:47.798Z,1.64
2024-03-05T04:54:17.333Z,1.62
2024-03-05T04:56:45.640Z,1.62
2024-03-05T04:59:13.861Z,1.52
2024-03-05T05:01:42.090Z,1.56
2024-03-05T05:04:10.290Z,1.19
2024-03-05T05:06:38.488Z,1.07
2024-03-05T05:09:07.972Z,1.18
2024-03-05T05:11:38.022Z,1.11
2024-03-05T05:14:06.270Z,1.09
2024-03-05T05:16:35.979Z,1.13
2024-03-05T05:19:06.002Z,1.15
2024-03-05T05:21:35.139Z,1.06
2024-03-05T05:24:03.335Z,1.06
2024-03-05T05:26:31.556Z,0.95
2024-03-05T05:29:01.938Z,0.79
2024-03-05T05:31:30.956Z,0.81
2024-03-05T05:34:00.170Z,0.93
2024-03-05T05:36:28.481Z,0.95
2024-03-05T05:38:56.713Z,0.93
2024-03-05T05:41:25.722Z,0.78
2024-03-05T05:43:54.065Z,0.55
2024-03-05T05:46:24.967Z,-0.03
2024-03-05T05:48:53.809Z,-0.06
2024-03-05T05:51:23.512Z,0.32
2024-03-05T05:53:54.991Z,0.41
2024-03-05T05:56:23.300Z,0.51
2024-03-05T05:58:51.804Z,0.91
2024-03-05T06:01:20.266Z,1.26
2024-03-05T06:03:50.295Z,1.12
2024-03-05T06:06:20.950Z,1.21
2024-03-05T06:08:49.658Z,1.15
2024-03-05T06:11:18.145Z,0.80
2024-03-05T06:13:47.551Z,0.65
2024-03-05T06:16:17.582Z,0.63
2024-03-05T06:18:45.904Z,0.47
2024-03-05T06:21:15.561Z,0.47
2024-03-05T06:23:43.784Z,0.60
2024-03-05T06:26:12.141Z,0.56
2024-03-05T06:28:40.403Z,0.51
2024-03-05T06:31:10.651Z,0.94
2024-03-05T06:33:38.910Z,0.83
2024-03-05T06:36:08.807Z,0.92
2024-03-05T06:38:38.977Z,0.93
2024-03-05T06:41:07.349Z,1.09
2024-03-05T06:43:37.852Z,1.04
2024-03-05T06:46:10.759Z,1.12
2024-03-05T06:48:43.157Z,1.21
2024-03-05T06:51:27.540Z,1.27
2024-03-05T06:54:14.861Z,1.28
2024-03-05T06:56:43.157Z,1.35
2024-03-05T06:59:11.956Z,1.41
2024-03-05T07:01:40.683Z,1.42
2024-03-05T07:04:09.902Z,1.49
2024-03-05T07:06:38.121Z,1.44
2024-03-05T07:09:07.695Z,1.51
2024-03-05T07:11:36.074Z,1.72
2024-03-05T07:14:04.537Z,1.74
2024-03-05T07:16:34.202Z,1.98
2024-03-05T07:19:04.499Z,1.91
2024-03-05T07:21:32.747Z,2.00
2024-03-05T07:24:01.249Z,2.17
2024-03-05T07:26:32.996Z,2.31
2024-03-05T07:29:01.353Z,2.37
2024-03-05T07:31:29.997Z,2.26
2024-03-05T07:33:59.427Z,2.57
2024-03-05T07:36:27.906Z,2.49
2024-03-05T07:38:56.285Z,2.25
2024-03-05T07:41:30.435Z,2.38
2024-03-05T07:44:05.508Z,2.38
2024-03-05T07:46:34.908Z,2.46
2024-03-05T07:49:03.605Z,2.36
2024-03-05T07:51:40.896Z,2.37
2024-03-05T07:54:14.679Z,2.64
2024-03-05T07:56:44.159Z,2.95
2024-03-05T07:59:14.677Z,2.93
2024-03-05T08:01:43.109Z,3.38
2024-03-05T08:04:11.404Z,3.47
2024-03-05T08:06:39.910Z,3.37
2024-03-05T08:09:09.088Z,3.05
2024-03-05T08:11:37.447Z,3.02
2024-03-05T08:14:08.464Z,3.51
2024-03-05T08:16:39.841Z,3.41
2024-03-05T08:19:08.908Z,3.52
2024-03-05T08:21:37.195Z,3.22
2024-03-05T08:24:07.626Z,3.61
2024-03-05T08:26:35.922Z,3.48
2024-03-05T08:29:05.140Z,3.48
2024-03-05T08:31:33.700Z,4.00
2024-03-05T08:34:05.482Z,3.51
2024-03-05T08:36:38.345Z,3.83
2024-03-05T08:39:18.362Z,3.74
2024-03-05T08:41:48.217Z,4.03
2024-03-05T08:44:17.722Z,4.03
2024-03-05T08:46:46.066Z,4.12
2024-03-05T08:49:15.737Z,4.42
2024-03-05T08:51:46.479Z,4.47
2024-03-05T08:54:17.803Z,4.75
2024-03-05T08:56:46.567Z,4.44
2024-03-05T08:59:15.002Z,4.36
2024-03-05T09:01:43.358Z,4.69
2024-03-05T09:04:11.663Z,4.73
2024-03-05T09:06:41.795Z,4.21
2024-03-05T09:09:12.253Z,4.23
2024-03-05T09:11:41.016Z,4.18
2024-03-05T09:14:09.998Z,4.38
2024-03-05T09:16:39.320Z,4.63
2024-03-05T09:19:07.980Z,4.63
2024-03-05T09:21:37.264Z,4.73
2024-03-05T09:24:07.983Z,5.18
2024-03-05T09:26:36.509Z,5.50
2024-03-05T09:29:04.945Z,5.72
2024-03-05T09:31:34.081Z,5.22
2024-03-05T09:34:02.372Z,5.59
2024-03-05T09:36:31.262Z,5.49
2024-03-05T09:39:01.224Z,5.71
2024-03-05T09:41:35.448Z,5.78
2024-03-05T09:44:06.938Z,5.22
2024-03-05T09:46:36.664Z,5.11
2024-03-05T09:49:14.923Z,5.38
2024-03-05T09:51:47.989Z,4.90
2024-03-05T09:54:16.346Z,5.10
2024-03-05T09:56:47.048Z,5.32
2024-03-05T09:59:17.644Z,5.71
2024-03-05T10:01:47.695Z,6.19
2024-03-05T10:04:18.028Z,6.39
2024-03-05T10:06:47.186Z,6.47
2024-03-05T10:09:15.597Z,6.15
2024-03-05T10:11:44.456Z,6.00
2024-03-05T10:14:14.143Z,6.09
2024-03-05T10:16:44.701Z,5.55
2024-03-05T10:19:14.572Z,5.02
2024-03-05T10:21:43.086Z,5.54
2024-03-05T10:24:12.395Z,6.05
2024-03-05T10:26:41.723Z,5.32
2024-03-05T10:29:11.622Z,5.61
2024-03-05T10:31:43.919Z,5.16
2024-03-05T10:34:12.722Z,5.16
2024-03-05T10:36:43.483Z,5.96
2024-03-05T10:39:14.063Z,6.54
2024-03-05T10:41:47.629Z,7.04
2024-03-05T10:44:20.800Z,7.74
2024-03-05T10:46:52.512Z,7.21
2024-03-05T10:49:23.054Z,7.52
2024-03-05T10:51:54.214Z,7.32
2024-03-05T10:54:23.328Z,6.60
2024-03-05T10:56:53.313Z,6.31
2024-03-05T10:59:35.302Z,6.03
2024-03-05T11:02:10.327Z,6.08
2024-03-05T11:04:38.696Z,5.86
2024-03-05T11:07:07.728Z,6.34
2024-03-05T11:09:37.773Z,6.14
2024-03-05T11:12:10.640Z,6.75
2024-03-05T11:14:39.799Z,6.91
2024-03-05T11:17:12.923Z,6.84
2024-03-05T11:19:44.596Z,7.22
2024-03-05T11:22:24.421Z,6.41
2024-03-05T11:24:58.243Z,6.33
2024-03-05T11:27:27.260Z,6.01
2024-03-05T11:30:07.889Z,6.21
2024-03-05T11:32:39.288Z,6.19
2024-03-05T11:35:09.929Z,6.10
2024-03-05T11:37:52.590Z,6.39
2024-03-05T11:40:23.741Z,7.16
2024-03-05T11:42:54.357Z,7.20
2024-03-05T11:45:45.080Z,6.99
2024-03-05T11:48:16.032Z,6.51
2024-03-05T11:50:44.479Z,6.31
2024-03-05T11:53:13.348Z,6.11
2024-03-05T11:55:41.843Z,6.34
2024-03-05T11:58:12.470Z,6.95
2024-03-05T12:00:40.868Z,7.59
2024-03-05T12:03:09.715Z,7.08
2024-03-05T12:05:44.225Z,7.05
2024-03-05T12:08:12.538Z,8.14
2024-03-05T12:10:41.779Z,7.70
2024-03-05T12:13:11.542Z,7.32
2024-03-05T12:15:40.707Z,6.70
2024-03-05T12:18:11.808Z,6.50
2024-03-05T12:20:43.019Z,6.40
2024-03-05T12:23:11.847Z,5.90
2024-03-05T12:25:40.364Z,6.08
2024-03-05T12:28:08.700Z,6.21
2024-03-05T12:30:37.532Z,5.98
2024-03-05T12:33:07.142Z,6.22
2024-03-05T12:35:35.585Z,6.35
2024-03-05T12:38:07.166Z,6.60
2024-03-05T12:40:35.950Z,6.70
2024-03-05T12:43:09.716Z,6.88
2024-03-05T12:45:39.309Z,6.66
2024-03-05T12:48:10.329Z,6.78
2024-03-05T12:50:40.485Z,6.78
2024-03-05T12:53:10.916Z,6.66
2024-03-05T12:55:39.347Z,6.80
2024-03-05T12:58:08.546Z,6.97
2024-03-05T13:00:37.364Z,6.82
2024-03-05T13:03:06.535Z,7.27
2024-03-05T13:05:35.937Z,7.30
2024-03-05T13:08:05.602Z,6.67
2024-03-05T13:10:35.720Z,6.67
2024-03-05T13:13:04.392Z,6.46
2024-03-05T13:15:32.590Z,6.19
2024-03-05T13:18:00.954Z,5.94
2024-03-05T13:20:31.392Z,5.94
2024-03-05T13:23:00.775Z,5.91
2024-03-05T13:25:31.539Z,5.80
2024-03-05T13:28:03.177Z,5.63
2024-03-05T13:30:31.626Z,5.69
2024-03-05T13:33:03.668Z,5.61
2024-03-05T13:35:32.956Z,5.59
2024-03-05T13:38:01.571Z,5.62
2024-03-05T13:40:33.776Z,5.49
2024-03-05T13:43:03.929Z,5.54
2024-03-05T13:45:32.251Z,5.58
2024-03-05T13:48:01.149Z,5.68
2024-03-05T13:50:35.048Z,5.56
2024-03-05T13:53:03.384Z,5.64
2024-03-05T13:55:31.662Z,5.70
2024-03-05T13:58:00.715Z,5.65
2024-03-05T14:00:32.822Z,5.62
2024-03-05T14:03:03.159Z,5.64
2024-03-05T14:05:33.146Z,5.42
2024-03-05T14:08:02.006Z,5.37
2024-03-05T14:10:30.768Z,5.45
2024-03-05T14:13:00.947Z,5.39
2024-03-05T14:15:30.542Z,5.51
2024-03-05T14:17:59.237Z,5.54
2024-03-05T14:20:29.704Z,5.63
2024-03-05T14:23:00.651Z,5.73
2024-03-05T14:25:30.259Z,5.67
2024-03-05T14:27:58.625Z,5.58
2024-03-05T14:30:27.342Z,5.57
2024-03-05T14:33:00.078Z,5.58
2024-03-05T14:35:28.613Z,5.38
2024-03-05T14:37:57.767Z,5.54
2024-03-05T14:40:27.339Z,5.56
2024-03-05T14:42:55.935Z,5.52
2024-03-05T14:45:24.221Z,5.39
2024-03-05T14:47:52.497Z,5.26
2024-03-05T14:50:23.103Z,5.25
2024-03-05T14:52:53.720Z,5.20
2024-03-05T14:55:23.715Z,5.20
2024-03-05T14:57:51.968Z,5.24
2024-03-05T15:00:23.226Z,5.31
2024-03-05T15:02:52.603Z,5.22
2024-03-05T15:05:23.561Z,5.27
2024-03-05T15:07:54.067Z,5.03
2024-03-05T15:10:23.085Z,5.00
2024-03-05T15:12:53.116Z,5.03
2024-03-05T15:15:22.098Z,5.09
2024-03-05T15:17:50.512Z,5.10
2024-03-05T15:20:20.235Z,4.99
2024-03-05T15:22:51.191Z,4.87
2024-03-05T15:25:21.584Z,4.87
2024-03-05T15:28:01.108Z,4.81
2024-03-05T15:30:34.770Z,4.87
2024-03-05T15:33:05.546Z,4.90
2024-03-05T15:35:34.171Z,4.80
2024-03-05T15:38:06.221Z,4.90
2024-03-05T15:40:35.445Z,4.90
2024-03-05T15:43:07.308Z,4.78
2024-03-05T15:45:39.602Z,4.80
2024-03-05T15:48:11.304Z,4.72
2024-03-05T15:50:42.455Z,4.64
2024-03-05T15:53:12.898Z,4.74
2024-03-05T15:55:45.663Z,4.74
2024-03-05T15:58:40.853Z,4.82
2024-03-05T16:01:08.226Z,4.86
2024-03-05T16:03:40.303Z,4.84
2024-03-05T16:06:18.565Z,4.75
2024-03-05T16:08:49.129Z,4.73
2024-03-05T16:11:17.773Z,4.92
2024-03-05T16:13:46.966Z,4.85
2024-03-05T16:16:15.804Z,4.79
2024-03-05T16:18:45.609Z,4.90
2024-03-05T16:21:14.246Z,4.85
2024-03-05T16:23:42.543Z,4.87
2024-03-05T16:26:12.083Z,4.83
2024-03-05T16:28:41.286Z,4.74
2024-03-05T16:31:12.369Z,4.67
2024-03-05T16:33:43.030Z,4.74
2024-03-05T16:36:11.314Z,4.57
2024-03-05T16:38:40.720Z,4.52
2024-03-05T16:41:09.009Z,4.48
2024-03-05T16:43:39.383Z,4.48
2024-03-05T16:46:09.530Z,4.35
2024-03-05T16:48:38.504Z,4.45
2024-03-05T16:51:06.733Z,4.62
2024-03-05T16:53:37.370Z,4.73
2024-03-05T16:56:06.321Z,4.57
2024-03-05T16:58:38.887Z,4.38
2024-03-05T17:01:13.636Z,4.50
2024-03-05T17:03:46.090Z,4.33
2024-03-05T17:06:16.089Z,4.42
2024-03-05T17:08:44.749Z,4.63
2024-03-05T17:11:16.660Z,4.70
2024-03-05T17:13:47.508Z,4.69
2024-03-05T17:16:18.521Z,4.51
2024-03-05T17:18:46.925Z,4.54
2024-03-05T17:21:15.177Z,4.47
2024-03-05T17:23:48.110Z,4.43
2024-03-05T17:26:17.240Z,4.37
2024-03-05T17:28:46.116Z,4.35
2024-03-05T17:31:14.378Z,4.38
2024-03-05T17:33:44.023Z,4.29
2024-03-05T17:36:12.639Z,4.26
2024-03-05T17:38:41.864Z,4.14
2024-03-05T17:41:10.117Z,4.14
2024-03-05T17:43:38.618Z,4.09
2024-03-05T17:46:07.441Z,4.11
2024-03-05T17:48:35.991Z,4.18
2024-03-05T17:51:11.089Z,4.23
2024-03-05T17:53:39.591Z,4.36
2024-03-05T17:56:12.372Z,4.33
2024-03-05T17:58:41.224Z,4.55
2024-03-05T18:01:12.582Z,4.40
2024-03-05T18:03:41.661Z,3.78
2024-03-05T18:06:11.954Z,3.81
2024-03-05T18:08:40.718Z,3.85
2024-03-05T18:11:12.345Z,4.11
2024-03-05T18:13:44.087Z,3.94
2024-03-05T18:16:12.766Z,3.85
2024-03-05T18:18:41.055Z,4.07
2024-03-05T18:21:10.825Z,3.87
2024-03-05T18:23:40.569Z,3.87
2024-03-05T18:26:08.840Z,4.01
2024-03-05T18:28:37.077Z,4.09
2024-03-05T18:31:08.268Z,4.03
2024-03-05T18:33:36.513Z,3.90
2024-03-05T18:36:04.984Z,3.55
2024-03-05T18:38:34.694Z,3.48
2024-03-05T18:41:03.502Z,3.65
2024-03-05T18:43:32.289Z,3.96
2024-03-05T18:46:01.586Z,4.10
2024-03-05T18:48:30.517Z,3.91
2024-03-05T18:50:59.333Z,3.96
2024-03-05T18:53:36.337Z,4.06
2024-03-05T18:56:14.089Z,3.85
2024-03-05T18:58:44.238Z,4.06
2024-03-05T19:01:15.420Z,3.74
2024-03-05T19:03:45.558Z,3.95
2024-03-05T19:06:13.945Z,3.88
2024-03-05T19:08:42.166Z,3.61
2024-03-05T19:11:12.505Z,3.93
2024-03-05T19:13:43.097Z,4.07
2024-03-05T19:16:11.495Z,3.95
2024-03-05T19:18:39.727Z,3.73
2024-03-05T19:21:09.351Z,3.78
2024-03-05T19:23:38.478Z,3.61
2024-03-05T19:26:06.832Z,3.47
2024-03-05T19:28:37.846Z,3.50
2024-03-05T19:31:10.699Z,3.33
2024-03-05T19:33:41.340Z,3.42
2024-03-05T19:36:10.966Z,3.40
2024-03-05T19:38:41.547Z,3.34
2024-03-05T19:41:11.240Z,3.04
2024-03-05T19:43:41.061Z,3.25
2024-03-05T19:46:10.947Z,3.25
2024-03-05T19:48:39.304Z,3.38
2024-03-05T19:51:08.513Z,3.19
2024-03-05T19:53:37.103Z,2.55
2024-03-05T19:56:06.084Z,2.16
2024-03-05T19:58:35.087Z,2.04
2024-03-05T20:01:03.478Z,1.91
2024-03-05T20:03:33.148Z,1.84
2024-03-05T20:06:01.734Z,2.04
2024-03-05T20:08:34.442Z,2.28
2024-03-05T20:11:03.127Z,2.04
2024-03-05T20:13:31.479Z,1.80
2024-03-05T20:15:59.706Z,1.87
2024-03-05T20:18:29.218Z,2.08
2024-03-05T20:20:59.013Z,1.99
2024-03-05T20:23:29.714Z,2.03
2024-03-05T20:25:57.945Z,1.94
2024-03-05T20:28:26.204Z,1.45
2024-03-05T20:30:56.175Z,1.64
2024-03-05T20:33:24.934Z,1.44
2024-03-05T20:35:53.177Z,1.51
2024-03-05T20:38:25.515Z,1.43
2024-03-05T20:40:53.908Z,1.20
2024-03-05T20:43:22.158Z,0.80
2024-03-05T20:45:51.458Z,1.03
2024-03-05T20:48:20.338Z,1.16
2024-03-05T20:50:50.753Z,0.87
2024-03-05T20:53:22.062Z,0.92
2024-03-05T20:55:50.436Z,0.94
2024-03-05T20:58:18.682Z,0.96
2024-03-05T21:00:46.969Z,0.80
2024-03-05T21:03:19.221Z,0.44
2024-03-05T21:05:48.156Z,0.77
2024-03-05T21:08:16.638Z,0.71
2024-03-05T21:10:46.998Z,0.60
2024-03-05T21:13:15.329Z,0.59
2024-03-05T21:15:43.540Z,0.58
2024-03-05T21:18:12.127Z,0.53
2024-03-05T21:20:40.886Z,0.47
2024-03-05T21:23:09.207Z,0.34
2024-03-05T21:25:50.084Z,0.31
2024-03-05T21:28:27.092Z,0.32
2024-03-05T21:30:56.010Z,0.11
2024-03-05T21:33:24.307Z,0.25
2024-03-05T21:35:53.262Z,0.11
2024-03-05T21:38:21.526Z,-0.03
2024-03-05T21:40:49.770Z,-0.01
2024-03-05T21:43:18.546Z,-0.01
2024-03-05T21:45:48.299Z,-0.02
2024-03-05T21:48:16.878Z,-0.06
2024-03-05T21:50:45.128Z,-0.31
2024-03-05T21:53:13.564Z,-0.36
2024-03-05T21:55:42.323Z,-0.31
2024-03-05T21:58:10.610Z,-0.29
2024-03-05T22:00:38.869Z,-0.70
2024-03-05T22:03:09.124Z,-0.45
2024-03-05T22:05:37.414Z,-0.45
2024-03-05T22:08:06.634Z,-0.64
2024-03-05T22:10:35.000Z,-0.46
2024-03-05T22:13:05.371Z,-0.43
2024-03-05T22:15:33.612Z,-0.90
2024-03-05T22:18:01.921Z,-0.92
2024-03-05T22:20:31.522Z,-0.67
2024-03-05T22:23:00.571Z,-0.51
2024-03-05T22:25:28.957Z,-0.46
2024-03-05T22:27:57.196Z,-0.57
2024-03-05T22:30:25.600Z,-0.59
2024-03-05T22:32:53.971Z,-0.47
2024-03-05T22:35:23.166Z,-0.51
2024-03-05T22:37:55.641Z,-0.18
2024-03-05T22:40:26.061Z,-0.17
2024-03-05T22:42:54.249Z,-0.17
2024-03-05T22:45:22.967Z,-0.52
2024-03-05T22:47:51.315Z,-0.58
2024-03-05T22:50:19.717Z,-0.69
2024-03-05T22:52:47.969Z,-0.56
2024-03-05T22:55:17.598Z,-0.57
2024-03-05T22:57:45.859Z,-0.64
2024-03-05T23:00:23.668Z,-0.74
2024-03-05T23:02:53.471Z,-0.71
2024-03-05T23:05:22.246Z,-0.71
2024-03-05T23:07:52.165Z,-0.71
2024-03-05T23:10:22.385Z,-0.88
2024-03-05T23:12:50.759Z,-0.80
2024-03-05T23:15:19.797Z,-0.72
2024-03-05T23:17:48.107Z,-0.93
2024-03-05T23:20:18.589Z,-0.90
2024-03-05T23:22:48.501Z,-1.13
2024-03-05T23:25:17.395Z,-1.35
2024-03-05T23:27:47.949Z,-0.93
2024-03-05T23:30:17.550Z,-0.93
2024-03-05T23:32:46.437Z,-1.02
2024-03-05T23:35:15.000Z,-0.90
2024-03-05T23:37:43.384Z,-0.95
2024-03-05T23:40:12.368Z,-1.22
2024-03-05T23:42:40.894Z,-1.15
2024-03-05T23:45:11.451Z,-1.08
2024-03-05T23:47:39.697Z,-1.06
2024-03-05T23:50:10.458Z,-0.98
2024-03-05T23:52:39.121Z,-1.01
2024-03-05T23:55:08.242Z,-0.98
2024-03-05T23:57:36.751Z,-1.11
